Time,TemperatureF,DewpointF,PressureIn,WindDirection,WindDirectionDegrees,WindSpeedMPH,WindSpeedGustMPH,Humidity,HourlyPrecipIn,Conditions,Clouds,dailyrainin,SolarRadiationWatts/m^2,SoftwareType,DateUTC
2013-02-07 00:07:00,11.6,-8.0,30.30,NW,316,19.0,32.0,42,0.00,,,0.00,0,weatherlink.com 1.10,2013-02-07 05:07:00,
2013-02-07 00:22:00,11.3,-8.0,30.30,NW,305,18.0,31.0,42,0.00,,,0.00,0,weatherlink.com 1.10,2013-02-07 05:22:00,
2013-02-07 00:37:00,10.8,-8.0,30.30,NW,311,24.0,25.0,43,0.00,,,0.00,0,weatherlink.com 1.10,2013-02-07 05:37:00,
2013-02-07 00:52:00,10.6,-7.0,30.32,NW,313,20.0,28.0,44,0.00,,,0.00,0,weatherlink.com 1.10,2013-02-07 05:52:00,
2013-02-07 01:07:00,10.4,-8.0,30.32,NW,323,14.0,28.0,44,0.00,,,0.00,0,weatherlink.com 1.10,2013-02-07 06:07:00,
2013-02-07 01:37:00,9.8,-7.0,30.33,WNW,286,13.0,21.0,46,0.00,,,0.00,0,weatherlink.com 1.10,2013-02-07 06:37:00,
2013-02-07 01:53:00,9.4,-7.0,30.34,West,275,8.0,17.0,47,0.00,,,0.00,0,weatherlink.com 1.10,2013-02-07 06:53:00,
2013-02-07 02:07:00,9.3,-7.0,30.34,West,269,12.0,17.0,48,0.00,,,0.00,0,weatherlink.com 1.10,2013-02-07 07:07:00,
2013-02-07 02:22:00,9.2,-7.0,30.34,West,268,11.0,17.0,48,0.00,,,0.00,0,weatherlink.com 1.10,2013-02-07 07:22:00,
2013-02-07 02:38:00,9.1,-7.0,30.35,West,277,12.0,20.0,49,0.00,,,0.00,0,weatherlink.com 1.10,2013-02-07 07:38:00,
2013-02-07 02:53:00,9.0,-7.0,30.36,West,279,12.0,19.0,49,0.00,,,0.00,0,weatherlink.com 1.10,2013-02-07 07:53:00,
2013-02-07 03:08:00,8.9,-6.0,30.35,West,275,12.0,17.0,50,0.00,,,0.00,0,weatherlink.com 1.10,2013-02-07 08:08:00,
2013-02-07 03:23:00,8.8,-6.0,30.35,West,276,11.0,20.0,50,0.00,,,0.00,0,weatherlink.com 1.10,2013-02-07 08:23:00,
2013-02-07 03:38:00,8.7,-6.0,30.36,WNW,282,9.0,23.0,51,0.00,,,0.00,0,weatherlink.com 1.10,2013-02-07 08:38:00,
2013-02-07 03:53:00,8.3,-6.0,30.36,WNW,298,10.0,20.0,52,0.00,,,0.00,0,weatherlink.com 1.10,2013-02-07 08:53:00,
2013-02-07 04:08:00,8.2,-6.0,30.37,West,280,12.0,26.0,52,0.00,,,0.00,0,weatherlink.com 1.10,2013-02-07 09:08:00,
2013-02-07 04:23:00,8.1,-6.0,30.38,WNW,296,24.0,24.0,52,0.00,,,0.00,0,weatherlink.com 1.10,2013-02-07 09:23:00,
2013-02-07 04:38:00,7.8,-6.0,30.39,NW,311,15.0,23.0,53,0.00,,,0.00,0,weatherlink.com 1.10,2013-02-07 09:38:00,
2013-02-07 04:53:00,7.7,-6.0,30.40,WNW,287,12.0,22.0,54,0.00,,,0.00,0,weatherlink.com 1.10,2013-02-07 09:53:00,
2013-02-07 05:08:00,7.5,-6.0,30.40,West,277,12.0,21.0,54,0.00,,,0.00,0,weatherlink.com 1.10,2013-02-07 10:08:00,
2013-02-07 05:23:00,7.2,-6.0,30.41,West,267,22.0,25.0,55,0.00,,,0.00,0,weatherlink.com 1.10,2013-02-07 10:23:00,
2013-02-07 05:38:00,7.1,-6.0,30.40,West,267,10.0,26.0,55,0.00,,,0.00,0,weatherlink.com 1.10,2013-02-07 10:38:00,
2013-02-07 05:54:00,6.8,-6.0,30.42,West,272,12.0,24.0,56,0.00,,,0.00,0,weatherlink.com 1.10,2013-02-07 10:54:00,
2013-02-07 06:09:00,6.4,-6.0,30.42,WNW,299,12.0,17.0,57,0.00,,,0.00,0,weatherlink.com 1.10,2013-02-07 11:09:00,
2013-02-07 06:24:00,6.1,-6.0,30.42,WNW,291,10.0,16.0,58,0.00,,,0.00,0,weatherlink.com 1.10,2013-02-07 11:24:00,
2013-02-07 06:39:00,5.9,-6.0,30.43,West,273,12.0,15.0,59,0.00,,,0.00,0,weatherlink.com 1.10,2013-02-07 11:39:00,
2013-02-07 06:54:00,5.7,-6.0,30.43,West,271,20.0,20.0,59,0.00,,,0.00,5,weatherlink.com 1.10,2013-02-07 11:54:00,
2013-02-07 07:09:00,5.8,-6.0,30.44,WNW,295,15.0,21.0,59,0.00,,,0.00,11,weatherlink.com 1.10,2013-02-07 12:09:00,
2013-02-07 07:24:00,6.0,-6.0,30.45,WNW,283,17.0,22.0,58,0.00,,,0.00,19,weatherlink.com 1.10,2013-02-07 12:24:00,
2013-02-07 07:39:00,5.9,-6.0,30.46,WNW,285,12.0,24.0,58,0.00,,,0.00,25,weatherlink.com 1.10,2013-02-07 12:39:00,
2013-02-07 07:54:00,6.0,-6.0,30.47,West,265,18.0,22.0,58,0.00,,,0.00,56,weatherlink.com 1.10,2013-02-07 12:54:00,
2013-02-07 08:09:00,6.4,-6.0,30.48,West,280,13.0,23.0,58,0.00,,,0.00,63,weatherlink.com 1.10,2013-02-07 13:09:00,
2013-02-07 08:25:00,6.1,-5.0,30.49,West,270,13.0,22.0,60,0.00,,,0.00,206,weatherlink.com 1.10,2013-02-07 13:25:00,
2013-02-07 08:40:00,6.3,-5.0,30.50,WNW,292,8.0,21.0,59,0.00,,,0.00,248,weatherlink.com 1.10,2013-02-07 13:40:00,
2013-02-07 08:54:00,6.7,-6.0,30.51,WNW,290,14.0,21.0,56,0.00,,,0.00,288,weatherlink.com 1.10,2013-02-07 13:54:00,
2013-02-07 09:09:00,6.9,-7.0,30.52,WNW,285,15.0,20.0,54,0.00,,,0.00,325,weatherlink.com 1.10,2013-02-07 14:09:00,
2013-02-07 09:25:00,7.3,-7.0,30.53,WNW,296,9.0,21.0,51,0.00,,,0.00,362,weatherlink.com 1.10,2013-02-07 14:25:00,
2013-02-07 09:40:00,8.0,-7.0,30.53,West,261,15.0,17.0,50,0.00,,,0.00,397,weatherlink.com 1.10,2013-02-07 14:40:00,
2013-02-07 09:55:00,8.0,-8.0,30.54,NW,323,15.0,19.0,48,0.00,,,0.00,427,weatherlink.com 1.10,2013-02-07 14:55:00,
2013-02-07 10:10:00,8.9,-8.0,30.54,West,265,14.0,18.0,47,0.00,,,0.00,455,weatherlink.com 1.10,2013-02-07 15:10:00,
2013-02-07 10:25:00,9.4,-8.0,30.55,West,265,17.0,22.0,46,0.00,,,0.00,478,weatherlink.com 1.10,2013-02-07 15:25:00,
2013-02-07 10:40:00,9.5,-8.0,30.55,West,281,12.0,25.0,46,0.00,,,0.00,501,weatherlink.com 1.10,2013-02-07 15:40:00,
2013-02-07 10:55:00,10.5,-8.0,30.56,NW,309,7.0,17.0,44,0.00,,,0.00,522,weatherlink.com 1.10,2013-02-07 15:55:00,
2013-02-07 11:10:00,10.4,-8.0,30.56,West,277,11.0,17.0,43,0.00,,,0.00,536,weatherlink.com 1.10,2013-02-07 16:10:00,
2013-02-07 11:25:00,12.3,-7.0,30.55,West,280,10.0,16.0,42,0.00,,,0.00,548,weatherlink.com 1.10,2013-02-07 16:25:00,
2013-02-07 11:40:00,12.7,-7.0,30.55,WNW,302,9.0,17.0,41,0.00,,,0.00,557,weatherlink.com 1.10,2013-02-07 16:40:00,
2013-02-07 11:55:00,12.6,-8.0,30.54,WNW,297,7.0,17.0,40,0.00,,,0.00,568,weatherlink.com 1.10,2013-02-07 16:55:00,
2013-02-07 12:10:00,13.1,-8.0,30.55,WNW,291,7.0,16.0,39,0.00,,,0.00,564,weatherlink.com 1.10,2013-02-07 17:10:00,
2013-02-07 12:25:00,13.1,-8.0,30.54,West,279,10.0,17.0,39,0.00,,,0.00,561,weatherlink.com 1.10,2013-02-07 17:25:00,
2013-02-07 12:41:00,14.5,-8.0,30.54,West,275,8.0,16.0,37,0.00,,,0.00,557,weatherlink.com 1.10,2013-02-07 17:41:00,
2013-02-07 12:56:00,14.8,-8.0,30.53,WSW,253,5.0,13.0,36,0.00,,,0.00,536,weatherlink.com 1.10,2013-02-07 17:56:00,
2013-02-07 13:11:00,13.9,-9.0,30.54,WNW,286,12.0,16.0,36,0.00,,,0.00,469,weatherlink.com 1.10,2013-02-07 18:11:00,
2013-02-07 13:26:00,15.9,-7.0,30.53,West,273,11.0,13.0,35,0.00,,,0.00,499,weatherlink.com 1.10,2013-02-07 18:26:00,
2013-02-07 13:41:00,16.3,-7.0,30.53,West,277,3.0,13.0,35,0.00,,,0.00,478,weatherlink.com 1.10,2013-02-07 18:41:00,
2013-02-07 13:56:00,16.0,-9.0,30.53,WNW,298,1.0,9.0,33,0.00,,,0.00,461,weatherlink.com 1.10,2013-02-07 18:56:00,
2013-02-07 14:11:00,16.8,-7.0,30.53,NW,317,4.0,11.0,34,0.00,,,0.00,450,weatherlink.com 1.10,2013-02-07 19:11:00,
2013-02-07 14:26:00,16.6,-9.0,30.53,WNW,300,7.0,14.0,32,0.00,,,0.00,404,weatherlink.com 1.10,2013-02-07 19:26:00,
2013-02-07 14:41:00,16.8,-9.0,30.54,North,360,1.0,14.0,31,0.00,,,0.00,369,weatherlink.com 1.10,2013-02-07 19:41:00,
2013-02-07 14:56:00,17.2,-8.0,30.53,NNW,327,4.0,11.0,32,0.00,,,0.00,339,weatherlink.com 1.10,2013-02-07 19:56:00,
2013-02-07 15:11:00,17.5,-8.0,30.53,NNW,345,4.0,11.0,31,0.00,,,0.00,304,weatherlink.com 1.10,2013-02-07 20:11:00,
2013-02-07 15:26:00,17.8,-8.0,30.53,North,350,5.0,9.0,31,0.00,,,0.00,246,weatherlink.com 1.10,2013-02-07 20:26:00,
2013-02-07 15:41:00,18.0,-9.0,30.53,NNW,333,0.0,9.0,30,0.00,,,0.00,199,weatherlink.com 1.10,2013-02-07 20:41:00,
2013-02-07 15:56:00,17.2,-9.0,30.53,NNW,333,4.0,10.0,31,0.00,,,0.00,114,weatherlink.com 1.10,2013-02-07 20:56:00,
2013-02-07 16:12:00,16.2,-10.0,30.53,NNW,336,1.0,9.0,31,0.00,,,0.00,42,weatherlink.com 1.10,2013-02-07 21:12:00,
2013-02-07 16:27:00,16.3,-9.0,30.54,NNW,332,2.0,8.0,32,0.00,,,0.00,42,weatherlink.com 1.10,2013-02-07 21:27:00,
2013-02-07 16:42:00,15.9,-9.0,30.54,NNW,333,4.0,7.0,33,0.00,,,0.00,25,weatherlink.com 1.10,2013-02-07 21:42:00,
2013-02-07 16:57:00,15.5,-8.0,30.54,NNW,331,0.0,5.0,34,0.00,,,0.00,9,weatherlink.com 1.10,2013-02-07 21:57:00,
2013-02-07 17:12:00,16.8,-7.0,30.54,SW,221,0.0,4.0,34,0.00,,,0.00,0,weatherlink.com 1.10,2013-02-07 22:12:00,
2013-02-07 17:27:00,16.5,-7.0,30.54,WSW,245,0.0,0.0,35,0.00,,,0.00,,weatherlink.com 1.10,2013-02-07 22:27:00,
2013-02-07 17:42:00,16.2,-7.0,30.54,WSW,245,0.0,0.0,35,0.00,,,0.00,,weatherlink.com 1.10,2013-02-07 22:42:00,
2013-02-07 17:57:00,16.1,-7.0,30.55,WSW,245,0.0,2.0,35,0.00,,,0.00,,weatherlink.com 1.10,2013-02-07 22:57:00,
2013-02-07 18:12:00,16.2,-7.0,30.56,WSW,245,0.0,2.0,35,0.00,,,0.00,,weatherlink.com 1.10,2013-02-07 23:12:00,
2013-02-07 18:27:00,16.3,-6.0,30.56,WSW,245,0.0,0.0,37,0.00,,,0.00,,weatherlink.com 1.10,2013-02-07 23:27:00,
2013-02-07 18:42:00,16.2,-7.0,30.57,WSW,245,0.0,0.0,36,0.00,,,0.00,,weatherlink.com 1.10,2013-02-07 23:42:00,
2013-02-07 18:58:00,16.3,-4.0,30.57,WSW,245,0.0,0.0,40,0.00,,,0.00,,weatherlink.com 1.10,2013-02-07 23:58:00,
2013-02-07 19:12:00,16.2,-5.0,30.57,WSW,245,0.0,0.0,38,0.00,,,0.00,,weatherlink.com 1.10,2013-02-08 00:12:00,
2013-02-07 19:28:00,16.5,-6.0,30.57,WSW,245,0.0,0.0,37,0.00,,,0.00,,weatherlink.com 1.10,2013-02-08 00:28:00,
2013-02-07 19:43:00,16.6,-5.0,30.57,WSW,245,0.0,0.0,39,0.00,,,0.00,,weatherlink.com 1.10,2013-02-08 00:43:00,
2013-02-07 19:58:00,16.8,-4.0,30.57,WSW,245,0.0,0.0,40,0.00,,,0.00,,weatherlink.com 1.10,2013-02-08 00:58:00,
2013-02-07 20:14:00,16.8,-3.0,30.58,WSW,245,0.0,0.0,41,0.00,,,0.00,,weatherlink.com 1.10,2013-02-08 01:14:00,
2013-02-07 20:28:00,16.9,-4.0,30.57,WSW,245,0.0,0.0,39,0.00,,,0.00,,weatherlink.com 1.10,2013-02-08 01:28:00,
2013-02-07 20:43:00,16.8,-5.0,30.57,ESE,115,0.0,2.0,38,0.00,,,0.00,,weatherlink.com 1.10,2013-02-08 01:43:00,
2013-02-07 20:58:00,16.3,-3.0,30.58,ESE,103,0.0,1.0,43,0.00,,,0.00,,weatherlink.com 1.10,2013-02-08 01:58:00,
2013-02-07 21:13:00,15.9,-4.0,30.57,East,83,0.0,4.0,42,0.00,,,0.00,,weatherlink.com 1.10,2013-02-08 02:13:00,
2013-02-07 21:28:00,16.0,-4.0,30.57,East,94,3.0,6.0,41,0.00,,,0.00,,weatherlink.com 1.10,2013-02-08 02:28:00,
2013-02-07 21:43:00,15.9,-4.0,30.57,East,92,0.0,6.0,41,0.00,,,0.00,,weatherlink.com 1.10,2013-02-08 02:43:00,
2013-02-07 21:58:00,16.2,-4.0,30.57,East,92,0.0,4.0,40,0.00,,,0.00,,weatherlink.com 1.10,2013-02-08 02:58:00,
2013-02-07 22:14:00,16.3,-4.0,30.57,ESE,107,0.0,5.0,40,0.00,,,0.00,,weatherlink.com 1.10,2013-02-08 03:14:00,
2013-02-07 22:28:00,16.3,1.0,30.56,East,101,0.0,5.0,52,0.00,,,0.00,,weatherlink.com 1.10,2013-02-08 03:28:00,
2013-02-07 22:44:00,15.9,5.0,30.55,NE,53,4.0,8.0,61,0.00,,,0.00,,weatherlink.com 1.10,2013-02-08 03:44:00,
2013-02-07 22:59:00,15.6,3.0,30.56,ENE,73,1.0,8.0,58,0.00,,,0.00,,weatherlink.com 1.10,2013-02-08 03:59:00,
2013-02-07 23:14:00,15.1,3.0,30.56,ENE,70,8.0,11.0,58,0.00,,,0.00,,weatherlink.com 1.10,2013-02-08 04:14:00,
2013-02-07 23:29:00,14.5,1.0,30.56,ENE,73,7.0,9.0,55,0.00,,,0.00,,weatherlink.com 1.10,2013-02-08 04:29:00,
2013-02-07 23:44:00,14.0,-1.0,30.56,East,95,3.0,14.0,52,0.00,,,0.00,,weatherlink.com 1.10,2013-02-08 04:44:00,
2013-02-07 23:59:00,13.7,-2.0,30.56,East,91,0.0,10.0,50,0.00,,,0.00,,weatherlink.com 1.10,2013-02-08 04:59:00,